Time;durP1;ratioP1;P1;durP2;ratioP2;P2;SDS_P1;SDS_P2;PMS_P1;PMS_P2;Temp;Humidity;BMP_temperature;BMP_pressure;BME280_temperature;BME280_humidity;BME280_pressure;Samples;Min_cycle;Max_cycle;Signal;HPM_P1;HPM_P2
2023/08/07 00:00:39;;;;;;;11.32;2.15;;;15.30;99.90;;;;;;5055736;28;20052;-67
2023/08/07 00:03:04;;;;;;;9.35;1.92;;;15.40;99.90;;;;;;5056374;28;20401;-67
2023/08/07 00:05:30;;;;;;;8.77;2.10;;;15.30;99.90;;;;;;5054669;28;20044;-67
2023/08/07 00:07:56;;;;;;;10.00;2.15;;;15.20;99.90;;;;;;5054092;28;20045;-67
2023/08/07 00:10:22;;;;;;;9.93;2.00;;;15.20;99.90;;;;;;5055049;28;20447;-67
2023/08/07 00:12:48;;;;;;;8.55;2.03;;;15.10;99.90;;;;;;5055820;28;20552;-67
2023/08/07 00:15:14;;;;;;;9.43;2.20;;;15.10;99.90;;;;;;5054287;28;20132;-67
2023/08/07 00:17:42;;;;;;;7.25;1.98;;;15.00;99.90;;;;;;5054578;28;20073;-68
2023/08/07 00:20:09;;;;;;;9.65;1.98;;;15.00;99.90;;;;;;5053866;28;20059;-68
2023/08/07 00:22:38;;;;;;;6.88;2.00;;;15.00;99.90;;;;;;5055790;28;20071;-67
2023/08/07 00:25:04;;;;;;;11.50;2.35;;;14.90;99.90;;;;;;5056097;28;20037;-67
2023/08/07 00:27:30;;;;;;;8.63;2.20;;;14.90;99.90;;;;;;5055060;28;20049;-67
2023/08/07 00:29:56;;;;;;;11.73;2.60;;;14.90;99.90;;;;;;5055788;28;20049;-67
2023/08/07 00:32:22;;;;;;;9.73;2.30;;;14.90;99.90;;;;;;5037699;28;20087;-67
2023/08/07 00:34:48;;;;;;;10.35;2.42;;;14.90;99.90;;;;;;5054176;28;20072;-67
2023/08/07 00:37:13;;;;;;;11.85;2.55;;;14.80;99.90;;;;;;5038157;28;20049;-67
2023/08/07 00:39:39;;;;;;;14.68;2.55;;;14.80;99.90;;;;;;5055489;28;20048;-67
2023/08/07 00:42:05;;;;;;;10.35;2.90;;;14.80;99.90;;;;;;5054657;28;20040;-67
2023/08/07 00:44:31;;;;;;;11.18;3.30;;;14.80;99.90;;;;;;5038176;28;20146;-67
2023/08/07 00:46:57;;;;;;;12.52;2.30;;;14.80;99.90;;;;;;5055812;28;20045;-67
2023/08/07 00:49:23;;;;;;;12.80;2.17;;;14.80;99.90;;;;;;5055075;28;20041;-68
2023/08/07 00:51:52;;;;;;;6.18;2.13;;;14.90;99.90;;;;;;5055273;28;20055;-67
2023/08/07 00:54:19;;;;;;;10.10;2.10;;;14.90;99.90;;;;;;5055060;28;20041;-68
2023/08/07 00:56:45;;;;;;;12.05;2.20;;;14.90;99.90;;;;;;5036797;28;20076;-67
2023/08/07 00:59:15;;;;;;;9.20;1.98;;;15.00;99.90;;;;;;5037673;28;20044;-67
2023/08/07 01:01:41;;;;;;;10.73;2.20;;;15.00;99.90;;;;;;5037377;28;20075;-67
2023/08/07 01:04:07;;;;;;;5.45;2.08;;;15.00;99.90;;;;;;5053268;28;20033;-67
2023/08/07 01:06:32;;;;;;;10.00;2.80;;;14.90;99.90;;;;;;5054841;28;20444;-67
2023/08/07 01:08:58;;;;;;;14.40;2.30;;;14.90;99.90;;;;;;5055407;28;20049;-67
2023/08/07 01:11:34;;;;;;;6.53;2.15;;;14.90;99.90;;;;;;5054362;28;20063;-68
2023/08/07 01:14:00;;;;;;;;;;;14.90;99.90;;;;;;5037379;28;20052;-68
2023/08/07 01:16:37;;;;;;;10.90;2.23;;;14.90;99.90;;;;;;5036209;28;20286;-68
2023/08/07 01:19:04;;;;;;;5.80;1.90;;;14.80;99.90;;;;;;5037444;28;20056;-67
2023/08/07 01:21:32;;;;;;;11.63;2.10;;;14.80;99.90;;;;;;5054382;28;20459;-67
2023/08/07 01:24:01;;;;;;;10.68;2.38;;;14.80;99.90;;;;;;5053878;28;20500;-67
2023/08/07 01:26:31;;;;;;;13.13;2.38;;;14.70;99.90;;;;;;5054518;28;20057;-67
2023/08/07 01:29:34;;;;;;;8.15;2.22;;;14.70;99.90;;;;;;5055092;28;20053;-67
2023/08/07 01:32:03;;;;;;;8.93;1.90;;;14.60;99.90;;;;;;5053884;28;20103;-67
2023/08/07 01:34:30;;;;;;;11.13;2.53;;;14.60;99.90;;;;;;5036918;28;20409;-67
2023/08/07 01:36:59;;;;;;;9.82;2.45;;;14.50;99.90;;;;;;5034377;28;20044;-68
2023/08/07 01:39:28;;;;;;;12.57;2.30;;;14.50;99.90;;;;;;5036233;28;20049;-67
2023/08/07 01:41:55;;;;;;;7.20;2.20;;;14.50;99.90;;;;;;5054416;28;20455;-67
2023/08/07 01:44:27;;;;;;;12.15;2.63;;;14.40;99.90;;;;;;5054294;28;20045;-67
2023/08/07 01:46:55;;;;;;;12.43;2.58;;;14.40;99.90;;;;;;5036050;28;20052;-67
2023/08/07 01:49:21;;;;;;;10.50;2.50;;;14.30;99.90;;;;;;5036436;28;20052;-67
2023/08/07 01:51:47;;;;;;;8.40;2.28;;;14.30;99.90;;;;;;5035151;28;20091;-67
2023/08/07 01:54:13;;;;;;;10.55;2.63;;;14.30;99.90;;;;;;5036775;28;20504;-67
2023/08/07 01:56:38;;;;;;;10.82;2.30;;;14.20;99.90;;;;;;5054182;28;20087;-67
2023/08/07 01:59:04;;;;;;;13.10;2.88;;;14.20;99.90;;;;;;5035888;28;20132;-67
2023/08/07 02:01:30;;;;;;;16.05;2.60;;;14.20;99.90;;;;;;5035459;28;20072;-67
2023/08/07 02:03:58;;;;;;;12.85;2.40;;;14.20;99.90;;;;;;5036181;28;20045;-67
2023/08/07 02:06:24;;;;;;;9.68;2.75;;;14.10;99.90;;;;;;5053339;28;20049;-67
2023/08/07 02:08:49;;;;;;;10.88;2.60;;;14.30;99.90;;;;;;5053927;28;20392;-67
2023/08/07 02:11:15;;;;;;;9.93;2.42;;;14.30;99.90;;;;;;5053884;28;20056;-67
2023/08/07 02:13:41;;;;;;;6.00;2.17;;;14.40;99.90;;;;;;5053067;28;20725;-67
2023/08/07 02:16:06;;;;;;;5.97;2.42;;;14.40;99.90;;;;;;5054085;28;20522;-67
2023/08/07 02:18:32;;;;;;;8.00;2.17;;;14.40;99.90;;;;;;5035451;28;20048;-67
2023/08/07 02:21:00;;;;;;;9.13;2.53;;;14.50;99.90;;;;;;5034643;28;20131;-68
2023/08/07 02:23:29;;;;;;;9.40;2.80;;;14.80;99.90;;;;;;5053872;28;20052;-68
2023/08/07 02:25:55;;;;;;;7.90;2.50;;;14.50;99.90;;;;;;5036011;28;20060;-67
2023/08/07 02:28:20;;;;;;;10.07;2.22;;;14.60;99.90;;;;;;5052990;28;20064;-66
2023/08/07 02:30:51;;;;;;;16.02;3.55;;;14.70;99.90;;;;;;5053220;28;20045;-67
2023/08/07 02:33:16;;;;;;;15.82;2.92;;;14.80;99.90;;;;;;5052226;28;20076;-67
2023/08/07 02:35:42;;;;;;;17.92;3.85;;;14.90;99.90;;;;;;5050917;28;20091;-67
2023/08/07 02:38:09;;;;;;;16.40;3.88;;;14.90;99.90;;;;;;5052387;28;20504;-67
2023/08/07 02:40:35;;;;;;;17.60;3.65;;;14.90;99.90;;;;;;5051889;28;20054;-67
2023/08/07 02:43:01;;;;;;;17.23;3.50;;;14.90;99.90;;;;;;5051708;28;20056;-67
2023/08/07 02:45:29;;;;;;;11.48;3.40;;;15.00;99.90;;;;;;5053168;28;20486;-67
2023/08/07 02:47:57;;;;;;;14.00;3.42;;;14.90;99.90;;;;;;5051984;28;20052;-67
2023/08/07 02:50:24;;;;;;;18.17;3.40;;;14.90;99.90;;;;;;5051610;28;20045;-67
2023/08/07 02:52:50;;;;;;;9.88;3.00;;;14.90;99.90;;;;;;5051804;28;20040;-67
2023/08/07 02:55:25;;;;;;;12.02;2.70;;;14.90;99.90;;;;;;5052278;28;20048;-66
2023/08/07 02:57:53;;;;;;;13.25;2.97;;;14.80;99.90;;;;;;5053000;28;20068;-67
2023/08/07 03:00:19;;;;;;;9.48;2.80;;;14.80;99.90;;;;;;5052064;28;20068;-66
2023/08/07 03:02:45;;;;;;;15.50;3.20;;;14.70;99.90;;;;;;5050680;28;20480;-67
2023/08/07 03:05:14;;;;;;;12.90;2.80;;;14.80;99.90;;;;;;5052461;28;20033;-66
2023/08/07 03:07:39;;;;;;;11.20;3.10;;;14.70;99.90;;;;;;5051658;28;20069;-66
2023/08/07 03:10:07;;;;;;;10.25;3.00;;;14.70;99.90;;;;;;5051991;28;20388;-66
2023/08/07 03:12:33;;;;;;;9.32;2.90;;;14.70;99.90;;;;;;5051232;28;20084;-67
2023/08/07 03:14:58;;;;;;;7.78;3.25;;;14.80;99.90;;;;;;5051779;28;20098;-66
2023/08/07 03:17:24;;;;;;;12.20;2.90;;;14.70;99.90;;;;;;5052304;28;20040;-66
2023/08/07 03:19:50;;;;;;;11.43;2.90;;;14.80;99.90;;;;;;5050710;28;20056;-67
2023/08/07 03:22:15;;;;;;;11.18;3.03;;;14.80;99.90;;;;;;5051496;28;20053;-67
2023/08/07 03:24:46;;;;;;;13.02;3.08;;;14.80;99.90;;;;;;5050641;28;20056;-67
2023/08/07 03:27:12;;;;;;;9.10;2.80;;;14.80;99.90;;;;;;5050855;28;20052;-66
2023/08/07 03:29:38;;;;;;;9.40;2.78;;;14.70;99.90;;;;;;5051156;28;20120;-66
2023/08/07 03:32:04;;;;;;;8.48;2.40;;;14.70;99.90;;;;;;5050189;28;20469;-67
2023/08/07 03:34:29;;;;;;;9.55;2.30;;;14.70;99.90;;;;;;5049827;28;20053;-67
2023/08/07 03:36:55;;;;;;;8.55;2.25;;;14.70;99.90;;;;;;5050398;28;20132;-67
2023/08/07 03:39:21;;;;;;;6.28;2.10;;;14.70;99.90;;;;;;5052264;28;20045;-67
2023/08/07 03:41:46;;;;;;;8.10;2.42;;;14.70;99.90;;;;;;5050889;28;20493;-67
2023/08/07 03:44:12;;;;;;;10.23;3.17;;;14.70;99.90;;;;;;5051962;28;20045;-67
2023/08/07 03:46:38;;;;;;;10.38;2.72;;;14.70;99.90;;;;;;5052261;28;20044;-66
2023/08/07 03:49:04;;;;;;;11.93;2.78;;;14.70;99.90;;;;;;5052707;28;20044;-67
2023/08/07 03:51:32;;;;;;;15.13;2.90;;;14.50;99.90;;;;;;5050301;28;20439;-66
2023/08/07 03:53:58;;;;;;;12.73;3.13;;;14.50;99.90;;;;;;5051252;28;20049;-66
2023/08/07 03:56:24;;;;;;;14.65;4.30;;;14.50;99.90;;;;;;5052580;28;20487;-66
2023/08/07 03:58:50;;;;;;;15.18;3.33;;;14.50;99.90;;;;;;5049858;28;20049;-67
2023/08/07 04:01:16;;;;;;;15.18;3.00;;;14.50;99.90;;;;;;5051160;28;20052;-67
2023/08/07 04:03:42;;;;;;;11.75;3.03;;;14.50;99.90;;;;;;5050667;28;20174;-66
2023/08/07 04:06:10;;;;;;;11.98;3.30;;;14.50;99.90;;;;;;5049605;28;20132;-66
2023/08/07 04:08:36;;;;;;;11.02;2.90;;;14.50;99.90;;;;;;5050815;28;20090;-67
2023/08/07 04:11:05;;;;;;;12.48;3.17;;;14.40;99.90;;;;;;5050850;28;20045;-67
2023/08/07 04:13:31;;;;;;;14.82;2.90;;;14.40;99.90;;;;;;5051627;28;20041;-66
2023/08/07 04:16:02;;;;;;;10.10;2.78;;;14.50;99.90;;;;;;5052093;28;20041;-67
2023/08/07 04:18:28;;;;;;;11.98;3.10;;;14.50;99.90;;;;;;5052415;28;20042;-67
2023/08/07 04:20:55;;;;;;;7.47;2.85;;;14.40;99.90;;;;;;5051345;28;20409;-67
2023/08/07 04:23:24;;;;;;;9.60;3.10;;;14.40;99.90;;;;;;5050734;28;20049;-67
2023/08/07 04:25:50;;;;;;;11.77;3.55;;;14.40;99.90;;;;;;5051761;28;20083;-67
2023/08/07 04:28:19;;;;;;;13.98;3.20;;;14.40;99.90;;;;;;5033557;28;20049;-67
2023/08/07 04:30:48;;;;;;;10.90;3.05;;;14.40;99.90;;;;;;5033912;28;20060;-67
2023/08/07 04:33:14;;;;;;;14.95;3.30;;;14.40;99.90;;;;;;5051088;28;20044;-66
2023/08/07 04:35:43;;;;;;;14.02;3.67;;;14.50;99.90;;;;;;5033092;28;20045;-66
2023/08/07 04:38:09;;;;;;;14.70;3.30;;;14.40;99.90;;;;;;5054066;28;20038;-67
2023/08/07 04:40:35;;;;;;;16.85;3.80;;;14.40;99.90;;;;;;5054720;28;20045;-67
2023/08/07 04:43:01;;;;;;;16.02;4.05;;;14.40;99.90;;;;;;5037921;28;20370;-67
2023/08/07 04:45:27;;;;;;;15.93;3.10;;;14.40;99.90;;;;;;5055379;28;20045;-67
2023/08/07 04:47:53;;;;;;;13.68;3.20;;;14.40;99.90;;;;;;5036645;28;20045;-67
2023/08/07 04:50:18;;;;;;;10.48;3.45;;;14.50;99.90;;;;;;5055801;28;20075;-66
2023/08/07 04:52:44;;;;;;;19.38;3.63;;;14.50;99.90;;;;;;5054883;28;20154;-66
2023/08/07 04:55:10;;;;;;;11.02;3.47;;;14.50;99.90;;;;;;5054090;28;20052;-67
2023/08/07 04:57:36;;;;;;;14.15;3.85;;;14.60;99.90;;;;;;5054866;28;20076;-67
2023/08/07 05:00:02;;;;;;;12.90;3.55;;;14.60;99.90;;;;;;5037493;28;20079;-67
2023/08/07 05:02:27;;;;;;;11.85;3.17;;;14.60;99.90;;;;;;5036831;28;20477;-67
2023/08/07 05:04:53;;;;;;;15.80;3.28;;;14.60;99.90;;;;;;5055096;28;20041;-66
2023/08/07 05:07:19;;;;;;;15.15;3.75;;;14.60;99.90;;;;;;5037629;28;20493;-66
2023/08/07 05:09:45;;;;;;;9.60;2.60;;;14.60;99.90;;;;;;5035808;28;20041;-67
2023/08/07 05:12:11;;;;;;;11.30;2.95;;;14.70;99.90;;;;;;5037085;28;20052;-67
2023/08/07 05:14:37;;;;;;;10.32;2.78;;;14.60;99.90;;;;;;5054686;28;20041;-67
2023/08/07 05:17:03;;;;;;;12.40;2.88;;;14.50;99.90;;;;;;5036622;28;20048;-67
2023/08/07 05:19:28;;;;;;;15.90;2.65;;;14.60;99.90;;;;;;5054937;28;20044;-67
2023/08/07 05:21:54;;;;;;;11.48;2.72;;;14.60;99.90;;;;;;5054525;28;20045;-67
2023/08/07 05:24:20;;;;;;;16.63;3.60;;;14.60;99.90;;;;;;5054149;28;20039;-67
2023/08/07 05:26:45;;;;;;;12.32;3.20;;;14.70;99.90;;;;;;5044127;28;20048;-66
2023/08/07 05:29:11;;;;;;;17.25;3.22;;;14.70;99.90;;;;;;5053219;28;20492;-67
2023/08/07 05:31:37;;;;;;;9.70;3.10;;;14.70;99.90;;;;;;5052616;28;20119;-67
2023/08/07 05:34:03;;;;;;;12.85;3.10;;;14.70;99.90;;;;;;5054602;28;20049;-67
2023/08/07 05:36:31;;;;;;;10.52;2.53;;;14.70;99.90;;;;;;5053177;28;20053;-67
2023/08/07 05:38:57;;;;;;;9.20;2.85;;;14.80;99.90;;;;;;5052746;28;20053;-67
2023/08/07 05:41:22;;;;;;;14.25;3.03;;;14.90;99.90;;;;;;5054864;28;20135;-67
2023/08/07 05:43:48;;;;;;;12.45;3.03;;;14.90;99.90;;;;;;5052369;28;20081;-67
2023/08/07 05:46:14;;;;;;;8.50;2.75;;;14.90;99.90;;;;;;5054646;28;20045;-67
2023/08/07 05:48:45;;;;;;;12.48;2.80;;;14.90;99.90;;;;;;5052078;28;20049;-67
2023/08/07 05:51:11;;;;;;;8.68;2.65;;;14.80;99.90;;;;;;5052519;28;20045;-67
2023/08/07 05:53:37;;;;;;;13.13;3.10;;;14.80;99.90;;;;;;5052697;28;20043;-67
2023/08/07 05:56:05;;;;;;;11.20;2.45;;;14.80;99.90;;;;;;5053074;28;20074;-67
2023/08/07 05:58:31;;;;;;;11.20;2.70;;;14.90;99.90;;;;;;5052127;28;20040;-67
2023/08/07 06:00:56;;;;;;;9.02;3.00;;;16.00;99.90;;;;;;5053535;28;20127;-67
2023/08/07 06:03:23;;;;;;;7.25;2.20;;;15.00;99.90;;;;;;5052794;28;20041;-68
2023/08/07 06:05:48;;;;;;;9.60;2.60;;;15.00;99.90;;;;;;5052795;28;20072;-67
2023/08/07 06:08:14;;;;;;;7.13;2.25;;;15.00;99.90;;;;;;5053331;28;20481;-68
2023/08/07 06:10:40;;;;;;;8.55;3.17;;;15.00;99.90;;;;;;5053869;28;20083;-68
2023/08/07 06:13:06;;;;;;;9.32;2.63;;;15.10;99.90;;;;;;5052071;28;20399;-67
2023/08/07 06:15:33;;;;;;;11.05;2.80;;;15.10;99.90;;;;;;5052031;28;20052;-67
2023/08/07 06:17:59;;;;;;;7.07;2.05;;;15.20;99.90;;;;;;5052923;28;20122;-67
2023/08/07 06:20:24;;;;;;;7.30;2.28;;;15.20;99.90;;;;;;5053181;28;20052;-68
2023/08/07 06:22:50;;;;;;;12.52;2.53;;;15.40;99.90;;;;;;5053596;28;20048;-68
2023/08/07 06:25:16;;;;;;;7.53;2.28;;;15.50;99.90;;;;;;5053298;28;20032;-67
2023/08/07 06:27:41;;;;;;;6.47;2.20;;;15.60;99.90;;;;;;5050904;28;20084;-68
2023/08/07 06:30:07;;;;;;;8.93;2.00;;;15.60;99.90;;;;;;5052565;28;20131;-67
2023/08/07 06:32:36;;;;;;;9.30;2.25;;;15.70;99.90;;;;;;5051619;28;20049;-67
2023/08/07 06:35:04;;;;;;;8.40;2.10;;;15.70;99.90;;;;;;5051033;28;20084;-67
2023/08/07 06:37:32;;;;;;;8.07;1.90;;;15.70;99.90;;;;;;5052285;28;20129;-68
2023/08/07 06:39:58;;;;;;;8.23;2.25;;;15.70;99.90;;;;;;5051534;28;20499;-68
2023/08/07 06:42:24;;;;;;;8.60;2.55;;;15.70;99.90;;;;;;5052327;28;20128;-67
2023/08/07 06:44:49;;;;;;;10.70;3.17;;;15.50;99.90;;;;;;5050910;28;20144;-67
2023/08/07 06:47:15;;;;;;;11.88;3.28;;;15.30;99.90;;;;;;5051775;28;20094;-67
2023/08/07 06:49:41;;;;;;;11.07;2.65;;;15.10;99.90;;;;;;5051590;28;20099;-67
2023/08/07 06:52:07;;;;;;;9.70;3.15;;;15.00;99.90;;;;;;5052250;28;20044;-67
2023/08/07 06:54:32;;;;;;;8.30;2.33;;;14.90;99.90;;;;;;5050170;28;20380;-67
2023/08/07 06:57:01;;;;;;;7.43;2.20;;;14.80;99.90;;;;;;5041725;28;20381;-67
2023/08/07 06:59:30;;;;;;;7.32;1.92;;;14.90;99.90;;;;;;5052585;28;20037;-67
2023/08/07 07:01:55;;;;;;;6.18;2.30;;;15.10;99.90;;;;;;5051160;28;20052;-67
2023/08/07 07:04:21;;;;;;;7.43;2.03;;;15.20;99.90;;;;;;5051364;28;20110;-67
2023/08/07 07:06:47;;;;;;;6.50;2.47;;;15.40;99.90;;;;;;5052648;28;20099;-67
2023/08/07 07:09:19;;;;;;;8.38;2.25;;;15.60;99.90;;;;;;5050957;28;20132;-68
2023/08/07 07:11:44;;;;;;;9.18;2.30;;;15.80;99.90;;;;;;5052448;28;20044;-67
2023/08/07 07:14:10;;;;;;;6.90;2.20;;;15.90;99.90;;;;;;5053048;28;20119;-67
2023/08/07 07:16:37;;;;;;;6.13;2.20;;;15.90;99.90;;;;;;5050308;28;20044;-67
2023/08/07 07:19:04;;;;;;;8.68;2.40;;;16.00;99.90;;;;;;5051487;28;20078;-68
2023/08/07 07:21:29;;;;;;;6.22;2.38;;;16.20;99.90;;;;;;5051203;28;20080;-67
2023/08/07 07:23:58;;;;;;;5.97;1.95;;;16.30;99.90;;;;;;5051593;28;20068;-67
2023/08/07 07:26:24;;;;;;;6.10;1.73;;;16.10;99.90;;;;;;5051273;28;20061;-67
2023/08/07 07:28:51;;;;;;;6.70;1.88;;;16.00;99.90;;;;;;5052342;28;20135;-68
2023/08/07 07:31:16;;;;;;;4.07;1.73;;;15.80;99.90;;;;;;5051655;28;20037;-67
2023/08/07 07:33:42;;;;;;;6.00;1.85;;;15.70;99.90;;;;;;5051121;28;20377;-67
2023/08/07 07:36:15;;;;;;;8.82;2.70;;;15.60;99.90;;;;;;5050518;28;20052;-67
2023/08/07 07:38:45;;;;;;;8.50;2.43;;;15.50;99.90;;;;;;5050838;28;20041;-67
2023/08/07 07:41:11;;;;;;;8.57;2.50;;;15.50;99.90;;;;;;5051320;28;20174;-68
2023/08/07 07:43:39;;;;;;;11.15;2.53;;;15.60;99.90;;;;;;5051614;28;20125;-67
2023/08/07 07:46:05;;;;;;;11.43;3.03;;;15.70;99.90;;;;;;5052587;28;20127;-67
2023/08/07 07:48:30;;;;;;;7.15;2.17;;;15.70;99.90;;;;;;5050710;28;20076;-67
2023/08/07 07:51:03;;;;;;;9.60;3.00;;;15.70;99.90;;;;;;5050291;28;20081;-67
2023/08/07 07:53:30;;;;;;;7.97;2.20;;;15.80;99.90;;;;;;5052259;28;20051;-67
2023/08/07 07:55:58;;;;;;;8.93;2.40;;;16.00;99.90;;;;;;5051945;28;20041;-68
2023/08/07 07:58:24;;;;;;;8.55;2.65;;;16.20;99.90;;;;;;5050062;28;20084;-68
2023/08/07 08:00:52;;;;;;;10.90;2.38;;;16.50;99.90;;;;;;5050692;28;20134;-68
2023/08/07 08:03:17;;;;;;;6.13;2.40;;;16.90;99.90;;;;;;5051195;28;20049;-68
2023/08/07 08:05:43;;;;;;;7.47;2.08;;;17.30;99.90;;;;;;5051377;28;20098;-68
2023/08/07 08:08:09;;;;;;;6.43;1.92;;;18.20;99.90;;;;;;5051130;28;20094;-68
2023/08/07 08:10:35;;;;;;;6.70;2.33;;;19.00;99.90;;;;;;5050748;28;20048;-67
2023/08/07 08:13:03;;;;;;;6.03;2.00;;;20.00;99.90;;;;;;5053080;28;20041;-68
2023/08/07 08:15:29;;;;;;;7.65;2.00;;;20.80;99.90;;;;;;5054708;28;20053;-68
2023/08/07 08:17:56;;;;;;;7.28;2.15;;;21.40;99.90;;;;;;5054727;28;20044;-68
2023/08/07 08:20:22;;;;;;;8.30;1.90;;;21.70;99.90;;;;;;5055623;28;20055;-68
2023/08/07 08:22:47;;;;;;;5.32;1.98;;;22.40;99.00;;;;;;5054641;28;20053;-68
2023/08/07 08:25:13;;;;;;;7.30;1.95;;;22.40;97.20;;;;;;5054958;28;20068;-68
2023/08/07 08:27:40;;;;;;;6.93;1.83;;;22.40;97.40;;;;;;5054189;28;20504;-67
2023/08/07 08:30:09;;;;;;;6.28;1.98;;;21.60;96.20;;;;;;5037593;28;20052;-68
2023/08/07 08:32:34;;;;;;;7.05;2.05;;;21.40;98.40;;;;;;5036803;28;20044;-68
2023/08/07 08:35:00;;;;;;;5.68;1.80;;;21.80;97.30;;;;;;5055866;28;20060;-68
2023/08/07 08:37:29;;;;;;;4.72;1.85;;;22.40;95.60;;;;;;5037975;28;20531;-68
2023/08/07 08:39:55;;;;;;;8.55;2.15;;;22.70;95.40;;;;;;5036295;28;20052;-69
2023/08/07 08:42:21;;;;;;;7.25;1.80;;;22.90;95.10;;;;;;5055953;28;20048;-68
2023/08/07 08:44:56;;;;;;;5.55;2.22;;;23.00;95.10;;;;;;5037650;28;20049;-68
2023/08/07 08:47:22;;;;;;;9.60;1.85;;;23.20;94.70;;;;;;5035243;28;20045;-68
2023/08/07 08:50:02;;;;;;;6.03;2.03;;;23.50;94.30;;;;;;5017790;28;20060;-68
2023/08/07 08:52:30;;;;;;;6.05;2.08;;;23.20;95.10;;;;;;5035620;28;20077;-68
2023/08/07 08:55:00;;;;;;;9.90;1.90;;;23.30;95.50;;;;;;5037800;28;20039;-68
2023/08/07 08:57:32;;;;;;;9.07;2.25;;;22.70;95.30;;;;;;5055520;28;20057;-67
2023/08/07 08:59:59;;;;;;;7.60;2.40;;;22.00;95.60;;;;;;5037574;28;20049;-67
2023/08/07 09:02:26;;;;;;;5.85;1.95;;;21.40;97.20;;;;;;5036771;28;20045;-67
2023/08/07 09:04:54;;;;;;;8.48;2.35;;;20.90;97.60;;;;;;5036543;28;20048;-68
2023/08/07 09:07:26;;;;;;;5.57;1.98;;;21.00;97.70;;;;;;5036556;28;20045;-67
2023/08/07 09:09:53;;;;;;;5.07;1.90;;;21.00;97.30;;;;;;5054296;28;20041;-67
2023/08/07 09:12:25;;;;;;;7.47;2.15;;;20.50;98.10;;;;;;5037357;28;20131;-68
2023/08/07 09:14:59;;;;;;;4.78;1.77;;;20.70;98.90;;;;;;5036445;28;20728;-69
2023/08/07 09:17:31;;;;;;;6.75;2.05;;;21.50;98.50;;;;;;5054622;28;20040;-67
2023/08/07 09:19:58;;;;;;;8.10;1.90;;;21.80;96.50;;;;;;5017524;28;20057;-66
2023/08/07 09:22:23;;;;;;;7.13;1.70;;;22.00;95.20;;;;;;5016304;28;20057;-66
2023/08/07 09:24:50;;;;;;;6.90;2.38;;;21.60;95.20;;;;;;5033783;28;20053;-66
2023/08/07 09:27:15;;;;;;;6.60;1.85;;;21.40;95.50;;;;;;5034683;28;20054;-67
2023/08/07 09:29:43;;;;;;;6.45;2.10;;;20.90;96.80;;;;;;5016376;28;20049;-66
2023/08/07 09:32:11;;;;;;;6.13;1.80;;;20.40;97.60;;;;;;5035428;28;20067;-67
2023/08/07 09:34:39;;;;;;;9.55;1.90;;;20.00;97.50;;;;;;5053796;28;20049;-66
2023/08/07 09:37:11;;;;;;;8.75;2.13;;;19.50;98.50;;;;;;5036075;28;20056;-66
2023/08/07 09:39:37;;;;;;;8.20;2.15;;;19.30;99.10;;;;;;5036414;28;20041;-66
2023/08/07 09:42:16;;;;;;;7.30;2.20;;;19.70;99.50;;;;;;5054567;28;20052;-66
2023/08/07 09:44:46;;;;;;;5.28;1.55;;;20.70;98.80;;;;;;5053580;28;20044;-67
2023/08/07 09:47:16;;;;;;;5.78;1.80;;;21.60;98.10;;;;;;5054715;28;20045;-66
2023/08/07 09:49:43;;;;;;;6.25;1.90;;;22.30;98.30;;;;;;5035950;28;20052;-66
2023/08/07 09:52:15;;;;;;;7.47;2.22;;;22.60;96.30;;;;;;5036183;28;20489;-66
2023/08/07 09:54:41;;;;;;;4.00;1.67;;;23.10;96.20;;;;;;5053977;28;20060;-66
2023/08/07 09:57:07;;;;;;;6.35;2.17;;;23.30;95.60;;;;;;5053475;28;20052;-67
2023/08/07 09:59:34;;;;;;;6.32;1.90;;;23.30;95.50;;;;;;5054207;28;20080;-66
2023/08/07 10:02:04;;;;;;;8.32;1.90;;;23.70;95.40;;;;;;5054016;28;20528;-66
2023/08/07 10:04:30;;;;;;;5.82;1.65;;;23.40;94.30;;;;;;5035222;28;20053;-67
2023/08/07 10:06:57;;;;;;;6.57;2.10;;;23.20;94.30;;;;;;5053899;28;20044;-66
2023/08/07 10:09:23;;;;;;;5.15;1.70;;;23.60;94.70;;;;;;5035981;28;20103;-67
2023/08/07 10:11:53;;;;;;;5.93;1.60;;;23.90;94.40;;;;;;5052350;28;20076;-68
2023/08/07 10:14:19;;;;;;;4.90;1.77;;;23.80;94.20;;;;;;5036155;28;20037;-68
2023/08/07 10:16:45;;;;;;;4.47;1.70;;;23.60;95.10;;;;;;5035201;28;20103;-67
2023/08/07 10:19:12;;;;;;;6.70;2.08;;;23.70;94.20;;;;;;5035388;28;20099;-68
2023/08/07 10:21:41;;;;;;;5.93;1.60;;;24.10;93.60;;;;;;5035997;28;20404;-68
2023/08/07 10:24:10;;;;;;;7.25;1.70;;;24.50;94.20;;;;;;5053597;28;20041;-68
2023/08/07 10:26:42;;;;;;;6.45;1.65;;;24.60;93.00;;;;;;5052378;28;20053;-68
2023/08/07 10:29:17;;;;;;;5.45;1.83;;;24.50;93.10;;;;;;5035914;28;20110;-68
2023/08/07 10:31:45;;;;;;;4.95;1.88;;;24.30;93.20;;;;;;5035836;28;20098;-68
2023/08/07 10:34:14;;;;;;;4.82;1.48;;;24.50;93.40;;;;;;5035065;28;20369;-68
2023/08/07 10:36:42;;;;;;;7.13;1.58;;;24.80;92.90;;;;;;5035101;28;20052;-68
2023/08/07 10:39:10;;;;;;;9.13;2.10;;;25.10;92.80;;;;;;5034891;28;20401;-68
2023/08/07 10:41:41;;;;;;;8.82;1.83;;;25.10;91.70;;;;;;5035200;28;20433;-68
2023/08/07 10:44:40;;;;;;;5.88;1.40;;;25.10;93.30;;;;;;5035554;28;20053;-68
2023/08/07 10:47:05;;;;;;;5.80;1.70;;;24.90;92.40;;;;;;5051438;28;20041;-68
2023/08/07 10:49:41;;;;;;;7.57;1.73;;;25.10;92.60;;;;;;5035399;28;20132;-68
2023/08/07 10:52:13;;;;;;;4.97;1.52;;;25.30;92.90;;;;;;5034992;28;20073;-68
2023/08/07 10:54:46;;;;;;;6.80;1.55;;;25.10;91.90;;;;;;5034057;28;20132;-69
2023/08/07 10:57:16;;;;;;;6.05;1.70;;;24.50;91.90;;;;;;5053335;28;20049;-68
2023/08/07 11:00:07;;;;;;;5.10;1.70;;;24.30;92.60;;;;;;5052893;28;20041;-68
2023/08/07 11:02:39;;;;;;;5.70;1.70;;;23.90;93.20;;;;;;5025255;28;20420;-68
2023/08/07 11:05:05;;;;;;;6.93;2.20;;;23.40;93.40;;;;;;5053016;28;20036;-68
2023/08/07 11:07:34;;;;;;;7.07;1.70;;;23.20;94.30;;;;;;5052199;28;20049;-68
2023/08/07 11:10:00;;;;;;;6.97;1.80;;;22.90;93.90;;;;;;5035211;28;20060;-68
2023/08/07 11:12:27;;;;;;;5.88;2.00;;;22.30;94.90;;;;;;5034947;28;20489;-68
2023/08/07 11:14:56;;;;;;;5.45;2.05;;;22.20;95.20;;;;;;5051581;28;20116;-68
2023/08/07 11:17:25;;;;;;;4.78;1.70;;;21.80;96.30;;;;;;5052952;28;20041;-68
2023/08/07 11:19:51;;;;;;;5.82;1.75;;;21.50;96.40;;;;;;5034938;28;20443;-68
2023/08/07 11:22:17;;;;;;;5.90;1.80;;;21.20;96.40;;;;;;5051922;28;20128;-68
2023/08/07 11:24:46;;;;;;;5.95;2.28;;;20.50;98.00;;;;;;5051881;28;20381;-68
2023/08/07 11:27:12;;;;;;;8.70;3.40;;;20.20;99.00;;;;;;5045739;28;20496;-68
2023/08/07 11:29:38;;;;;;;7.53;2.30;;;19.90;99.90;;;;;;5050592;28;20049;-68
2023/08/07 11:32:07;;;;;;;5.72;2.00;;;19.40;99.90;;;;;;5051486;28;20052;-68
2023/08/07 11:34:33;;;;;;;4.80;2.00;;;19.30;99.90;;;;;;5052149;28;20484;-68
2023/08/07 11:37:03;;;;;;;8.98;2.65;;;19.10;99.90;;;;;;5050472;28;20082;-68
2023/08/07 11:39:29;;;;;;;7.10;2.35;;;19.00;99.90;;;;;;5051092;28;20041;-68
2023/08/07 11:41:55;;;;;;;6.25;2.33;;;19.10;99.90;;;;;;5052398;28;20052;-68
2023/08/07 11:44:22;;;;;;;6.63;2.17;;;19.70;99.90;;;;;;5050529;28;20409;-68
2023/08/07 11:46:50;;;;;;;5.82;1.90;;;20.20;99.90;;;;;;5049977;28;20045;-68
2023/08/07 11:49:19;;;;;;;10.00;2.38;;;20.60;99.90;;;;;;5051229;28;20132;-68
2023/08/07 11:51:46;;;;;;;7.07;2.15;;;20.80;99.90;;;;;;5050899;28;20139;-67
2023/08/07 11:54:14;;;;;;;6.35;2.00;;;20.60;99.90;;;;;;5052586;28;20043;-68
2023/08/07 11:56:42;;;;;;;5.60;1.90;;;20.40;99.90;;;;;;5051007;28;20053;-68
2023/08/07 11:59:08;;;;;;;6.60;3.00;;;20.50;99.90;;;;;;5051109;28;20091;-68
2023/08/07 12:01:38;;;;;;;9.27;2.67;;;21.00;99.90;;;;;;5051549;28;20041;-68
2023/08/07 12:04:08;;;;;;;4.88;1.85;;;21.60;99.10;;;;;;5050664;28;20049;-68
2023/08/07 12:06:42;;;;;;;7.15;1.80;;;21.60;98.10;;;;;;5050722;28;20044;-68
2023/08/07 12:09:12;;;;;;;5.90;1.70;;;21.50;97.60;;;;;;5052200;28;20041;-69
2023/08/07 12:11:38;;;;;;;4.45;1.40;;;21.20;97.80;;;;;;5051236;28;20041;-68
2023/08/07 12:14:04;;;;;;;3.45;1.50;;;21.20;98.50;;;;;;5052309;28;20041;-68
2023/08/07 12:16:34;;;;;;;4.97;1.85;;;21.30;98.00;;;;;;5050127;28;20041;-68
2023/08/07 12:19:03;;;;;;;5.07;1.80;;;21.50;97.20;;;;;;5049938;28;20555;-69
2023/08/07 12:21:32;;;;;;;6.22;2.22;;;21.50;97.80;;;;;;5050797;28;20045;-69
2023/08/07 12:23:59;;;;;;;4.53;1.83;;;21.60;98.30;;;;;;5052453;28;20041;-68
2023/08/07 12:26:25;;;;;;;4.80;2.00;;;21.60;97.80;;;;;;5049864;28;20064;-68
2023/08/07 12:28:52;;;;;;;6.00;2.03;;;21.50;98.10;;;;;;5050575;28;20049;-69
2023/08/07 12:31:18;;;;;;;7.13;1.90;;;21.20;98.40;;;;;;5051369;28;20056;-68
2023/08/07 12:33:44;;;;;;;4.72;1.98;;;20.90;98.70;;;;;;5049504;28;20102;-68
2023/08/07 12:36:10;;;;;;;9.13;2.22;;;20.70;98.70;;;;;;5050676;28;20045;-68
2023/08/07 12:38:36;;;;;;;6.72;2.05;;;20.40;99.00;;;;;;5051021;28;20455;-68
2023/08/07 12:41:05;;;;;;;5.20;2.17;;;20.30;99.00;;;;;;5052180;28;20063;-69
2023/08/07 12:43:33;;;;;;;7.40;2.10;;;20.20;99.20;;;;;;5050800;28;20067;-68